sensor_id;sensor_type;location;lat;lon;timestamp;temperature;humidity
38398;DHT22;24179;52.094;4.408;2023-05-10T02:02:59;11.00;99.90
38398;DHT22;24179;52.094;4.408;2023-05-10T02:06:00;11.10;99.90
38398;DHT22;24179;52.094;4.408;2023-05-10T02:09:01;11.20;99.90
38398;DHT22;24179;52.094;4.408;2023-05-10T02:12:02;11.40;99.90
38398;DHT22;24179;52.094;4.408;2023-05-10T02:15:04;11.40;99.90
38398;DHT22;24179;52.094;4.408;2023-05-10T02:18:05;11.50;99.90
38398;DHT22;24179;52.094;4.408;2023-05-10T02:21:06;11.60;99.90
38398;DHT22;24179;52.094;4.408;2023-05-10T02:24:07;11.70;99.90
38398;DHT22;24179;52.094;4.408;2023-05-10T02:27:08;11.70;99.90
38398;DHT22;24179;52.094;4.408;2023-05-10T02:30:10;11.70;99.90
38398;DHT22;24179;52.094;4.408;2023-05-10T02:33:10;11.70;99.90
38398;DHT22;24179;52.094;4.408;2023-05-10T02:36:11;11.70;99.90
38398;DHT22;24179;52.094;4.408;2023-05-10T02:39:12;11.80;99.90
38398;DHT22;24179;52.094;4.408;2023-05-10T02:42:16;11.80;99.90
38398;DHT22;24179;52.094;4.408;2023-05-10T02:45:19;11.80;99.90
38398;DHT22;24179;52.094;4.408;2023-05-10T02:48:21;11.80;99.90
38398;DHT22;24179;52.094;4.408;2023-05-10T02:51:23;11.80;99.90
38398;DHT22;24179;52.094;4.408;2023-05-10T02:54:27;11.80;99.90
38398;DHT22;24179;52.094;4.408;2023-05-10T02:57:31;11.80;99.90
38398;DHT22;24179;52.094;4.408;2023-05-10T03:00:32;11.90;99.90
38398;DHT22;24179;52.094;4.408;2023-05-10T03:03:33;11.90;99.90
38398;DHT22;24179;52.094;4.408;2023-05-10T03:06:33;11.90;99.90
38398;DHT22;24179;52.094;4.408;2023-05-10T03:09:34;11.90;99.90
38398;DHT22;24179;52.094;4.408;2023-05-10T05:27:35;10.90;99.90
38398;DHT22;24179;52.094;4.408;2023-05-10T05:30:36;11.00;99.90
38398;DHT22;24179;52.094;4.408;2023-05-10T05:33:36;11.20;99.90
38398;DHT22;24179;52.094;4.408;2023-05-10T06:09:47;12.30;99.90
38398;DHT22;24179;52.094;4.408;2023-05-10T06:12:48;12.60;99.90
38398;DHT22;24179;52.094;4.408;2023-05-10T06:15:48;12.90;99.90
38398;DHT22;24179;52.094;4.408;2023-05-10T06:18:49;13.10;99.90
38398;DHT22;24179;52.094;4.408;2023-05-10T06:21:49;13.30;99.90
38398;DHT22;24179;52.094;4.408;2023-05-10T19:35:05;11.80;99.90
38398;DHT22;24179;52.094;4.408;2023-05-10T19:38:05;11.60;99.90
38398;DHT22;24179;52.094;4.408;2023-05-10T19:41:06;11.70;99.90
38398;DHT22;24179;52.094;4.408;2023-05-10T19:44:06;11.80;99.90
38398;DHT22;24179;52.094;4.408;2023-05-10T19:47:07;11.80;99.90
38398;DHT22;24179;52.094;4.408;2023-05-10T19:50:08;12.00;99.90
38398;DHT22;24179;52.094;4.408;2023-05-10T19:53:08;12.10;99.90
38398;DHT22;24179;52.094;4.408;2023-05-10T19:56:09;12.10;99.90
38398;DHT22;24179;52.094;4.408;2023-05-10T19:59:10;12.20;99.90
38398;DHT22;24179;52.094;4.408;2023-05-10T20:02:10;12.30;99.90
38398;DHT22;24179;52.094;4.408;2023-05-10T20:05:11;12.30;99.90
38398;DHT22;24179;52.094;4.408;2023-05-10T20:08:11;12.30;99.90
38398;DHT22;24179;52.094;4.408;2023-05-10T20:11:12;12.30;99.90
38398;DHT22;24179;52.094;4.408;2023-05-10T20:14:12;12.30;99.90
38398;DHT22;24179;52.094;4.408;2023-05-10T20:17:13;12.40;99.90
38398;DHT22;24179;52.094;4.408;2023-05-10T20:20:13;12.40;99.90
38398;DHT22;24179;52.094;4.408;2023-05-10T20:23:17;12.50;99.90
38398;DHT22;24179;52.094;4.408;2023-05-10T20:26:17;12.60;99.90
38398;DHT22;24179;52.094;4.408;2023-05-10T20:29:18;12.60;99.90
38398;DHT22;24179;52.094;4.408;2023-05-10T20:32:18;12.60;99.90
38398;DHT22;24179;52.094;4.408;2023-05-10T20:35:19;12.60;99.90
38398;DHT22;24179;52.094;4.408;2023-05-10T20:38:19;12.60;99.90
38398;DHT22;24179;52.094;4.408;2023-05-10T20:41:20;12.70;99.90
38398;DHT22;24179;52.094;4.408;2023-05-10T20:44:21;12.70;99.90
38398;DHT22;24179;52.094;4.408;2023-05-10T20:47:21;12.70;99.90
38398;DHT22;24179;52.094;4.408;2023-05-10T20:50:25;12.70;99.90
38398;DHT22;24179;52.094;4.408;2023-05-10T20:53:25;12.70;99.90
38398;DHT22;24179;52.094;4.408;2023-05-10T20:56:26;12.70;99.90
38398;DHT22;24179;52.094;4.408;2023-05-10T20:59:26;12.70;99.90
38398;DHT22;24179;52.094;4.408;2023-05-10T21:02:27;12.70;99.90
38398;DHT22;24179;52.094;4.408;2023-05-10T21:05:28;12.80;99.90
38398;DHT22;24179;52.094;4.408;2023-05-10T21:08:28;12.70;99.90
38398;DHT22;24179;52.094;4.408;2023-05-10T21:11:28;12.70;99.90
38398;DHT22;24179;52.094;4.408;2023-05-10T21:14:29;12.70;99.90
38398;DHT22;24179;52.094;4.408;2023-05-10T21:17:30;12.60;99.90
38398;DHT22;24179;52.094;4.408;2023-05-10T21:20:30;12.60;99.90
38398;DHT22;24179;52.094;4.408;2023-05-10T21:23:31;12.50;99.90
38398;DHT22;24179;52.094;4.408;2023-05-10T21:26:31;12.50;99.90
38398;DHT22;24179;52.094;4.408;2023-05-10T21:29:32;12.50;99.90
38398;DHT22;24179;52.094;4.408;2023-05-10T21:32:32;12.40;99.90
38398;DHT22;24179;52.094;4.408;2023-05-10T21:35:33;12.40;99.90
38398;DHT22;24179;52.094;4.408;2023-05-10T21:38:33;12.40;99.90
38398;DHT22;24179;52.094;4.408;2023-05-10T21:41:34;12.40;99.90
